sensor_id;sensor_type;location;lat;lon;timestamp;P1;durP1;ratioP1;P2;durP2;ratioP2
19653;SDS011;9975;48.046;7.804;2023-05-07T01:56:35;3.37;;;3.03;;
19653;SDS011;9975;48.046;7.804;2023-05-07T01:59:00;3.50;;;3.20;;
19653;SDS011;9975;48.046;7.804;2023-05-07T02:01:27;4.93;;;2.67;;
19653;SDS011;9975;48.046;7.804;2023-05-07T02:03:52;5.10;;;3.10;;
19653;SDS011;9975;48.046;7.804;2023-05-07T02:06:19;3.80;;;2.87;;
19653;SDS011;9975;48.046;7.804;2023-05-07T02:08:44;5.47;;;3.03;;
19653;SDS011;9975;48.046;7.804;2023-05-07T02:11:11;4.17;;;3.20;;
19653;SDS011;9975;48.046;7.804;2023-05-07T02:13:36;3.60;;;3.30;;
19653;SDS011;9975;48.046;7.804;2023-05-07T02:16:02;6.33;;;3.10;;
19653;SDS011;9975;48.046;7.804;2023-05-07T02:18:28;4.17;;;3.50;;
19653;SDS011;9975;48.046;7.804;2023-05-07T02:20:54;3.93;;;3.00;;
19653;SDS011;9975;48.046;7.804;2023-05-07T02:23:19;3.50;;;3.20;;
19653;SDS011;9975;48.046;7.804;2023-05-07T02:25:45;7.97;;;3.03;;
19653;SDS011;9975;48.046;7.804;2023-05-07T02:28:11;3.80;;;3.50;;
19653;SDS011;9975;48.046;7.804;2023-05-07T02:30:37;4.80;;;2.60;;
19653;SDS011;9975;48.046;7.804;2023-05-07T02:33:03;5.60;;;3.10;;
19653;SDS011;9975;48.046;7.804;2023-05-07T02:35:33;2.70;;;2.50;;
19653;SDS011;9975;48.046;7.804;2023-05-07T02:37:58;3.40;;;3.10;;
19653;SDS011;9975;48.046;7.804;2023-05-07T02:40:24;3.90;;;3.20;;
19653;SDS011;9975;48.046;7.804;2023-05-07T02:42:50;2.97;;;2.67;;
19653;SDS011;9975;48.046;7.804;2023-05-07T02:45:15;3.50;;;3.20;;
19653;SDS011;9975;48.046;7.804;2023-05-07T02:47:41;2.73;;;2.33;;
19653;SDS011;9975;48.046;7.804;2023-05-07T02:50:07;4.70;;;3.20;;
19653;SDS011;9975;48.046;7.804;2023-05-07T02:52:32;4.40;;;2.87;;
19653;SDS011;9975;48.046;7.804;2023-05-07T02:54:58;5.90;;;3.10;;
19653;SDS011;9975;48.046;7.804;2023-05-07T02:57:24;5.17;;;2.67;;
19653;SDS011;9975;48.046;7.804;2023-05-07T02:59:49;4.33;;;2.30;;
19653;SDS011;9975;48.046;7.804;2023-05-07T03:02:15;2.73;;;2.53;;
19653;SDS011;9975;48.046;7.804;2023-05-07T03:04:41;2.40;;;2.20;;
19653;SDS011;9975;48.046;7.804;2023-05-07T03:07:07;2.63;;;2.13;;
19653;SDS011;9975;48.046;7.804;2023-05-07T03:09:32;2.70;;;2.50;;
19653;SDS011;9975;48.046;7.804;2023-05-07T03:11:58;2.90;;;2.00;;
19653;SDS011;9975;48.046;7.804;2023-05-07T03:14:24;3.10;;;2.50;;
19653;SDS011;9975;48.046;7.804;2023-05-07T03:16:49;3.73;;;2.60;;
19653;SDS011;9975;48.046;7.804;2023-05-07T03:19:15;2.73;;;2.53;;
19653;SDS011;9975;48.046;7.804;2023-05-07T03:21:41;3.00;;;2.43;;
19653;SDS011;9975;48.046;7.804;2023-05-07T03:24:06;3.30;;;2.87;;
19653;SDS011;9975;48.046;7.804;2023-05-07T03:26:32;4.73;;;3.87;;
19653;SDS011;9975;48.046;7.804;2023-05-07T03:28:58;10.30;;;3.77;;
19653;SDS011;9975;48.046;7.804;2023-05-07T03:31:23;3.80;;;2.90;;
19653;SDS011;9975;48.046;7.804;2023-05-07T03:33:58;5.13;;;3.43;;
19653;SDS011;9975;48.046;7.804;2023-05-07T03:36:24;2.70;;;2.50;;
19653;SDS011;9975;48.046;7.804;2023-05-07T03:38:51;6.10;;;3.83;;
19653;SDS011;9975;48.046;7.804;2023-05-07T03:41:17;3.60;;;3.30;;
19653;SDS011;9975;48.046;7.804;2023-05-07T03:43:42;4.00;;;3.43;;
19653;SDS011;9975;48.046;7.804;2023-05-07T03:46:08;3.37;;;3.07;;
19653;SDS011;9975;48.046;7.804;2023-05-07T03:48:34;2.97;;;2.70;;
19653;SDS011;9975;48.046;7.804;2023-05-07T03:51:00;5.43;;;2.77;;
19653;SDS011;9975;48.046;7.804;2023-05-07T03:53:25;3.53;;;3.20;;
19653;SDS011;9975;48.046;7.804;2023-05-07T03:55:51;3.27;;;3.00;;
19653;SDS011;9975;48.046;7.804;2023-05-07T03:58:17;2.63;;;2.43;;
19653;SDS011;9975;48.046;7.804;2023-05-07T04:00:42;3.53;;;3.13;;
19653;SDS011;9975;48.046;7.804;2023-05-07T04:03:08;2.83;;;2.60;;
19653;SDS011;9975;48.046;7.804;2023-05-07T04:05:33;3.10;;;2.80;;
19653;SDS011;9975;48.046;7.804;2023-05-07T04:07:59;3.77;;;2.90;;
19653;SDS011;9975;48.046;7.804;2023-05-07T04:10:25;6.93;;;2.97;;
19653;SDS011;9975;48.046;7.804;2023-05-07T04:12:51;3.40;;;3.10;;
19653;SDS011;9975;48.046;7.804;2023-05-07T04:15:16;3.53;;;3.20;;
19653;SDS011;9975;48.046;7.804;2023-05-07T04:17:43;3.50;;;3.20;;
19653;SDS011;9975;48.046;7.804;2023-05-07T04:20:09;3.50;;;3.20;;
19653;SDS011;9975;48.046;7.804;2023-05-07T04:22:35;4.83;;;3.77;;
19653;SDS011;9975;48.046;7.804;2023-05-07T04:25:02;7.00;;;3.27;;
19653;SDS011;9975;48.046;7.804;2023-05-07T04:27:28;3.83;;;3.47;;
19653;SDS011;9975;48.046;7.804;2023-05-07T04:29:54;3.23;;;2.80;;
19653;SDS011;9975;48.046;7.804;2023-05-07T04:32:20;4.40;;;3.67;;
19653;SDS011;9975;48.046;7.804;2023-05-07T04:34:50;4.13;;;3.30;;
19653;SDS011;9975;48.046;7.804;2023-05-07T04:37:15;4.03;;;2.53;;
19653;SDS011;9975;48.046;7.804;2023-05-07T04:39:41;3.33;;;2.80;;
19653;SDS011;9975;48.046;7.804;2023-05-07T04:42:06;5.90;;;3.87;;
19653;SDS011;9975;48.046;7.804;2023-05-07T04:44:34;3.40;;;2.80;;
19653;SDS011;9975;48.046;7.804;2023-05-07T04:47:00;5.70;;;3.97;;
19653;SDS011;9975;48.046;7.804;2023-05-07T04:49:26;3.37;;;3.07;;
19653;SDS011;9975;48.046;7.804;2023-05-07T04:51:51;4.40;;;3.20;;
19653;SDS011;9975;48.046;7.804;2023-05-07T04:54:17;6.30;;;3.50;;
19653;SDS011;9975;48.046;7.804;2023-05-07T04:56:43;3.07;;;2.73;;
19653;SDS011;9975;48.046;7.804;2023-05-07T04:59:08;3.23;;;2.90;;
19653;SDS011;9975;48.046;7.804;2023-05-07T05:01:34;5.00;;;3.83;;
19653;SDS011;9975;48.046;7.804;2023-05-07T05:03:59;4.40;;;3.47;;
19653;SDS011;9975;48.046;7.804;2023-05-07T05:06:25;5.07;;;3.60;;
19653;SDS011;9975;48.046;7.804;2023-05-07T05:08:51;4.20;;;3.50;;
19653;SDS011;9975;48.046;7.804;2023-05-07T05:11:16;4.80;;;3.53;;
19653;SDS011;9975;48.046;7.804;2023-05-07T05:13:42;3.77;;;3.47;;
19653;SDS011;9975;48.046;7.804;2023-05-07T05:16:08;4.33;;;3.57;;
19653;SDS011;9975;48.046;7.804;2023-05-07T05:18:34;4.20;;;3.80;;
19653;SDS011;9975;48.046;7.804;2023-05-07T05:20:59;3.53;;;3.20;;
19653;SDS011;9975;48.046;7.804;2023-05-07T05:23:25;6.60;;;3.50;;
19653;SDS011;9975;48.046;7.804;2023-05-07T05:25:55;5.10;;;3.90;;
19653;SDS011;9975;48.046;7.804;2023-05-07T05:28:22;4.43;;;4.07;;
19653;SDS011;9975;48.046;7.804;2023-05-07T05:30:47;4.93;;;4.30;;
19653;SDS011;9975;48.046;7.804;2023-05-07T05:33:13;5.87;;;4.30;;
19653;SDS011;9975;48.046;7.804;2023-05-07T05:35:38;5.93;;;3.60;;
19653;SDS011;9975;48.046;7.804;2023-05-07T05:38:04;4.23;;;3.40;;
19653;SDS011;9975;48.046;7.804;2023-05-07T05:40:30;4.80;;;3.70;;
19653;SDS011;9975;48.046;7.804;2023-05-07T05:42:55;4.60;;;4.10;;
19653;SDS011;9975;48.046;7.804;2023-05-07T05:45:21;5.67;;;5.17;;
19653;SDS011;9975;48.046;7.804;2023-05-07T05:47:47;6.40;;;4.00;;
19653;SDS011;9975;48.046;7.804;2023-05-07T05:50:12;5.63;;;5.10;;
19653;SDS011;9975;48.046;7.804;2023-05-07T05:52:38;7.97;;;4.57;;
19653;SDS011;9975;48.046;7.804;2023-05-07T05:55:04;5.00;;;4.60;;
19653;SDS011;9975;48.046;7.804;2023-05-07T05:57:30;5.30;;;3.87;;
19653;SDS011;9975;48.046;7.804;2023-05-07T05:59:56;5.93;;;4.60;;
19653;SDS011;9975;48.046;7.804;2023-05-07T06:02:21;4.40;;;4.00;;
19653;SDS011;9975;48.046;7.804;2023-05-07T06:04:47;3.70;;;3.40;;
19653;SDS011;9975;48.046;7.804;2023-05-07T06:07:12;3.70;;;3.40;;
19653;SDS011;9975;48.046;7.804;2023-05-07T06:09:38;3.40;;;2.77;;
19653;SDS011;9975;48.046;7.804;2023-05-07T06:12:04;4.03;;;3.70;;
19653;SDS011;9975;48.046;7.804;2023-05-07T06:14:29;5.13;;;4.40;;
19653;SDS011;9975;48.046;7.804;2023-05-07T06:16:55;4.57;;;3.80;;
19653;SDS011;9975;48.046;7.804;2023-05-07T06:19:21;6.50;;;4.73;;
19653;SDS011;9975;48.046;7.804;2023-05-07T06:21:48;4.60;;;4.10;;
19653;SDS011;9975;48.046;7.804;2023-05-07T06:24:15;4.00;;;3.60;;
19653;SDS011;9975;48.046;7.804;2023-05-07T06:26:40;7.23;;;4.20;;
19653;SDS011;9975;48.046;7.804;2023-05-07T06:29:06;4.77;;;4.10;;
19653;SDS011;9975;48.046;7.804;2023-05-07T06:31:32;5.97;;;5.30;;
19653;SDS011;9975;48.046;7.804;2023-05-07T06:33:57;9.77;;;4.97;;
19653;SDS011;9975;48.046;7.804;2023-05-07T06:36:24;5.97;;;5.00;;
19653;SDS011;9975;48.046;7.804;2023-05-07T06:38:49;6.03;;;5.53;;
19653;SDS011;9975;48.046;7.804;2023-05-07T06:41:15;7.80;;;4.40;;
19653;SDS011;9975;48.046;7.804;2023-05-07T06:43:40;10.27;;;5.83;;
19653;SDS011;9975;48.046;7.804;2023-05-07T06:46:06;6.00;;;5.40;;
19653;SDS011;9975;48.046;7.804;2023-05-07T06:48:32;7.20;;;5.27;;
19653;SDS011;9975;48.046;7.804;2023-05-07T06:50:57;10.00;;;5.17;;
19653;SDS011;9975;48.046;7.804;2023-05-07T06:53:23;8.80;;;5.70;;
19653;SDS011;9975;48.046;7.804;2023-05-07T06:55:49;5.67;;;5.07;;
19653;SDS011;9975;48.046;7.804;2023-05-07T06:58:15;8.83;;;5.40;;
19653;SDS011;9975;48.046;7.804;2023-05-07T07:00:40;5.73;;;4.67;;
19653;SDS011;9975;48.046;7.804;2023-05-07T07:03:06;7.37;;;5.33;;
19653;SDS011;9975;48.046;7.804;2023-05-07T07:05:32;5.73;;;4.90;;
19653;SDS011;9975;48.046;7.804;2023-05-07T07:07:58;5.00;;;4.43;;
19653;SDS011;9975;48.046;7.804;2023-05-07T07:10:23;6.60;;;5.03;;
19653;SDS011;9975;48.046;7.804;2023-05-07T07:12:49;5.60;;;4.40;;
19653;SDS011;9975;48.046;7.804;2023-05-07T07:15:15;5.70;;;4.73;;
19653;SDS011;9975;48.046;7.804;2023-05-07T07:17:41;5.00;;;4.50;;
19653;SDS011;9975;48.046;7.804;2023-05-07T07:20:07;6.43;;;4.97;;
19653;SDS011;9975;48.046;7.804;2023-05-07T07:22:33;8.77;;;5.30;;
19653;SDS011;9975;48.046;7.804;2023-05-07T07:24:58;6.67;;;4.93;;
19653;SDS011;9975;48.046;7.804;2023-05-07T07:27:24;6.17;;;4.63;;
19653;SDS011;9975;48.046;7.804;2023-05-07T07:29:50;8.33;;;4.87;;
19653;SDS011;9975;48.046;7.804;2023-05-07T07:32:16;6.73;;;4.90;;
19653;SDS011;9975;48.046;7.804;2023-05-07T07:34:41;5.73;;;4.73;;
19653;SDS011;9975;48.046;7.804;2023-05-07T07:37:07;3.90;;;3.60;;
19653;SDS011;9975;48.046;7.804;2023-05-07T07:39:33;7.20;;;4.67;;
19653;SDS011;9975;48.046;7.804;2023-05-07T07:41:58;6.77;;;3.70;;
19653;SDS011;9975;48.046;7.804;2023-05-07T07:44:24;4.90;;;3.60;;
19653;SDS011;9975;48.046;7.804;2023-05-07T07:46:50;4.77;;;4.27;;
19653;SDS011;9975;48.046;7.804;2023-05-07T07:49:19;3.97;;;3.60;;
19653;SDS011;9975;48.046;7.804;2023-05-07T07:51:45;6.07;;;4.23;;
19653;SDS011;9975;48.046;7.804;2023-05-07T07:54:11;7.30;;;3.57;;
19653;SDS011;9975;48.046;7.804;2023-05-07T07:56:36;6.50;;;4.10;;
19653;SDS011;9975;48.046;7.804;2023-05-07T07:59:02;5.50;;;4.23;;
19653;SDS011;9975;48.046;7.804;2023-05-07T08:01:29;4.80;;;4.30;;
19653;SDS011;9975;48.046;7.804;2023-05-07T08:03:55;7.43;;;4.07;;
19653;SDS011;9975;48.046;7.804;2023-05-07T08:06:23;4.77;;;4.27;;
19653;SDS011;9975;48.046;7.804;2023-05-07T08:08:50;4.77;;;3.70;;
19653;SDS011;9975;48.046;7.804;2023-05-07T08:11:16;5.43;;;4.33;;
19653;SDS011;9975;48.046;7.804;2023-05-07T08:13:42;4.13;;;3.73;;
19653;SDS011;9975;48.046;7.804;2023-05-07T08:16:08;4.67;;;4.03;;
19653;SDS011;9975;48.046;7.804;2023-05-07T08:18:34;8.80;;;3.87;;
19653;SDS011;9975;48.046;7.804;2023-05-07T08:21:00;4.70;;;3.80;;
19653;SDS011;9975;48.046;7.804;2023-05-07T08:23:26;3.33;;;3.03;;
19653;SDS011;9975;48.046;7.804;2023-05-07T08:25:52;3.90;;;3.30;;
19653;SDS011;9975;48.046;7.804;2023-05-07T08:28:18;3.30;;;3.00;;
19653;SDS011;9975;48.046;7.804;2023-05-07T08:30:44;4.20;;;3.20;;
19653;SDS011;9975;48.046;7.804;2023-05-07T08:33:10;3.50;;;3.20;;
19653;SDS011;9975;48.046;7.804;2023-05-07T08:35:36;4.57;;;3.90;;
19653;SDS011;9975;48.046;7.804;2023-05-07T08:38:01;4.80;;;3.93;;
19653;SDS011;9975;48.046;7.804;2023-05-07T08:40:27;4.23;;;3.83;;
19653;SDS011;9975;48.046;7.804;2023-05-07T08:42:54;3.70;;;3.40;;
19653;SDS011;9975;48.046;7.804;2023-05-07T08:45:21;3.63;;;3.33;;
19653;SDS011;9975;48.046;7.804;2023-05-07T08:47:50;4.47;;;3.80;;
19653;SDS011;9975;48.046;7.804;2023-05-07T08:50:19;6.17;;;4.30;;
19653;SDS011;9975;48.046;7.804;2023-05-07T08:52:45;5.17;;;4.00;;
19653;SDS011;9975;48.046;7.804;2023-05-07T08:55:12;6.07;;;4.10;;
19653;SDS011;9975;48.046;7.804;2023-05-07T08:57:38;4.67;;;4.17;;
19653;SDS011;9975;48.046;7.804;2023-05-07T09:00:04;3.93;;;3.60;;
19653;SDS011;9975;48.046;7.804;2023-05-07T09:02:32;4.07;;;3.30;;
19653;SDS011;9975;48.046;7.804;2023-05-07T09:05:00;6.73;;;4.67;;
19653;SDS011;9975;48.046;7.804;2023-05-07T09:07:25;6.67;;;5.70;;
19653;SDS011;9975;48.046;7.804;2023-05-07T09:09:51;5.17;;;4.37;;
19653;SDS011;9975;48.046;7.804;2023-05-07T09:12:18;5.10;;;4.60;;
19653;SDS011;9975;48.046;7.804;2023-05-07T09:14:45;5.13;;;4.63;;
19653;SDS011;9975;48.046;7.804;2023-05-07T09:17:11;5.20;;;4.70;;
19653;SDS011;9975;48.046;7.804;2023-05-07T09:19:36;4.13;;;3.73;;
19653;SDS011;9975;48.046;7.804;2023-05-07T09:22:02;5.40;;;4.80;;
19653;SDS011;9975;48.046;7.804;2023-05-07T09:24:29;4.13;;;3.73;;
19653;SDS011;9975;48.046;7.804;2023-05-07T09:27:00;4.27;;;3.80;;
19653;SDS011;9975;48.046;7.804;2023-05-07T09:29:26;3.23;;;2.93;;
19653;SDS011;9975;48.046;7.804;2023-05-07T09:31:54;5.10;;;3.50;;
19653;SDS011;9975;48.046;7.804;2023-05-07T09:34:20;4.13;;;3.50;;
19653;SDS011;9975;48.046;7.804;2023-05-07T09:36:45;5.97;;;4.53;;
19653;SDS011;9975;48.046;7.804;2023-05-07T09:39:12;5.10;;;4.07;;
19653;SDS011;9975;48.046;7.804;2023-05-07T09:41:44;4.40;;;4.00;;
19653;SDS011;9975;48.046;7.804;2023-05-07T09:44:14;6.10;;;5.30;;
19653;SDS011;9975;48.046;7.804;2023-05-07T09:46:41;6.63;;;3.87;;
19653;SDS011;9975;48.046;7.804;2023-05-07T09:49:11;6.60;;;4.30;;
19653;SDS011;9975;48.046;7.804;2023-05-07T09:51:48;4.43;;;3.93;;
19653;SDS011;9975;48.046;7.804;2023-05-07T09:54:15;5.67;;;3.90;;
19653;SDS011;9975;48.046;7.804;2023-05-07T09:56:41;7.23;;;3.73;;
19653;SDS011;9975;48.046;7.804;2023-05-07T09:59:10;5.13;;;4.20;;
19653;SDS011;9975;48.046;7.804;2023-05-07T10:01:38;6.17;;;3.97;;
19653;SDS011;9975;48.046;7.804;2023-05-07T10:04:04;4.93;;;3.80;;
19653;SDS011;9975;48.046;7.804;2023-05-07T10:06:30;6.00;;;3.80;;
19653;SDS011;9975;48.046;7.804;2023-05-07T10:08:56;4.60;;;4.20;;
19653;SDS011;9975;48.046;7.804;2023-05-07T10:11:23;3.60;;;3.30;;
19653;SDS011;9975;48.046;7.804;2023-05-07T10:13:49;3.80;;;3.50;;
19653;SDS011;9975;48.046;7.804;2023-05-07T10:16:17;3.63;;;2.70;;
19653;SDS011;9975;48.046;7.804;2023-05-07T10:18:43;2.53;;;2.33;;
19653;SDS011;9975;48.046;7.804;2023-05-07T10:21:11;4.67;;;2.40;;
19653;SDS011;9975;48.046;7.804;2023-05-07T10:23:59;3.57;;;2.60;;
19653;SDS011;9975;48.046;7.804;2023-05-07T10:26:39;3.30;;;2.77;;
19653;SDS011;9975;48.046;7.804;2023-05-07T10:29:10;3.33;;;3.03;;
19653;SDS011;9975;48.046;7.804;2023-05-07T10:34:09;4.67;;;3.13;;
19653;SDS011;9975;48.046;7.804;2023-05-07T10:36:38;3.67;;;3.37;;
19653;SDS011;9975;48.046;7.804;2023-05-07T10:39:04;5.90;;;3.67;;
19653;SDS011;9975;48.046;7.804;2023-05-07T10:41:31;4.60;;;3.70;;
19653;SDS011;9975;48.046;7.804;2023-05-07T10:43:56;3.50;;;3.20;;
19653;SDS011;9975;48.046;7.804;2023-05-07T10:46:26;3.87;;;3.20;;
19653;SDS011;9975;48.046;7.804;2023-05-07T10:49:13;3.70;;;2.83;;
19653;SDS011;9975;48.046;7.804;2023-05-07T10:51:38;5.60;;;3.50;;
19653;SDS011;9975;48.046;7.804;2023-05-07T10:56:35;3.90;;;3.60;;
19653;SDS011;9975;48.046;7.804;2023-05-07T11:01:55;6.00;;;4.13;;
19653;SDS011;9975;48.046;7.804;2023-05-07T11:04:22;5.40;;;3.87;;
19653;SDS011;9975;48.046;7.804;2023-05-07T11:12:17;4.50;;;4.10;;
19653;SDS011;9975;48.046;7.804;2023-05-07T11:15:02;7.27;;;4.43;;
19653;SDS011;9975;48.046;7.804;2023-05-07T11:17:32;6.90;;;4.30;;
19653;SDS011;9975;48.046;7.804;2023-05-07T11:20:00;3.67;;;3.37;;
19653;SDS011;9975;48.046;7.804;2023-05-07T11:24:56;4.60;;;3.70;;
19653;SDS011;9975;48.046;7.804;2023-05-07T11:27:25;7.67;;;4.10;;
19653;SDS011;9975;48.046;7.804;2023-05-07T11:29:51;7.20;;;5.10;;
19653;SDS011;9975;48.046;7.804;2023-05-07T11:32:27;4.90;;;4.40;;
19653;SDS011;9975;48.046;7.804;2023-05-07T11:34:54;4.20;;;3.80;;
19653;SDS011;9975;48.046;7.804;2023-05-07T11:37:21;5.00;;;3.80;;
19653;SDS011;9975;48.046;7.804;2023-05-07T11:39:48;3.93;;;3.00;;
19653;SDS011;9975;48.046;7.804;2023-05-07T11:42:27;4.47;;;3.40;;
19653;SDS011;9975;48.046;7.804;2023-05-07T11:44:57;3.60;;;3.30;;
19653;SDS011;9975;48.046;7.804;2023-05-07T11:47:23;3.60;;;3.10;;
19653;SDS011;9975;48.046;7.804;2023-05-07T11:49:53;3.90;;;3.50;;
19653;SDS011;9975;48.046;7.804;2023-05-07T11:52:20;4.30;;;4.00;;
19653;SDS011;9975;48.046;7.804;2023-05-07T11:54:50;3.90;;;3.60;;
19653;SDS011;9975;48.046;7.804;2023-05-07T11:57:16;4.27;;;3.77;;
19653;SDS011;9975;48.046;7.804;2023-05-07T11:59:42;3.57;;;3.07;;
19653;SDS011;9975;48.046;7.804;2023-05-07T12:02:13;3.90;;;3.30;;
19653;SDS011;9975;48.046;7.804;2023-05-07T12:04:39;7.33;;;3.90;;
19653;SDS011;9975;48.046;7.804;2023-05-07T12:07:05;5.30;;;3.93;;
19653;SDS011;9975;48.046;7.804;2023-05-07T12:09:32;4.80;;;3.37;;
19653;SDS011;9975;48.046;7.804;2023-05-07T12:12:02;4.33;;;3.00;;
19653;SDS011;9975;48.046;7.804;2023-05-07T12:14:29;3.83;;;3.53;;
19653;SDS011;9975;48.046;7.804;2023-05-07T12:16:55;3.70;;;3.27;;
19653;SDS011;9975;48.046;7.804;2023-05-07T12:19:21;4.20;;;3.80;;
19653;SDS011;9975;48.046;7.804;2023-05-07T12:21:47;5.97;;;4.13;;
19653;SDS011;9975;48.046;7.804;2023-05-07T12:24:16;6.00;;;3.93;;
19653;SDS011;9975;48.046;7.804;2023-05-07T12:26:41;4.37;;;3.97;;
19653;SDS011;9975;48.046;7.804;2023-05-07T12:29:08;4.40;;;4.00;;
19653;SDS011;9975;48.046;7.804;2023-05-07T12:31:34;4.83;;;3.70;;
19653;SDS011;9975;48.046;7.804;2023-05-07T12:33:59;5.10;;;3.73;;
19653;SDS011;9975;48.046;7.804;2023-05-07T12:36:25;4.60;;;4.20;;
19653;SDS011;9975;48.046;7.804;2023-05-07T12:39:00;3.30;;;2.93;;
19653;SDS011;9975;48.046;7.804;2023-05-07T12:41:26;3.83;;;3.50;;
19653;SDS011;9975;48.046;7.804;2023-05-07T12:43:56;4.40;;;3.00;;
19653;SDS011;9975;48.046;7.804;2023-05-07T12:46:22;4.53;;;3.60;;
19653;SDS011;9975;48.046;7.804;2023-05-07T12:48:48;2.77;;;2.57;;
19653;SDS011;9975;48.046;7.804;2023-05-07T12:51:14;3.60;;;3.20;;
19653;SDS011;9975;48.046;7.804;2023-05-07T12:53:40;3.50;;;3.20;;
19653;SDS011;9975;48.046;7.804;2023-05-07T12:56:09;7.27;;;4.23;;
19653;SDS011;9975;48.046;7.804;2023-05-07T12:58:35;4.13;;;3.00;;
19653;SDS011;9975;48.046;7.804;2023-05-07T13:01:04;3.43;;;3.20;;
19653;SDS011;9975;48.046;7.804;2023-05-07T13:03:32;6.47;;;3.23;;
19653;SDS011;9975;48.046;7.804;2023-05-07T13:05:59;4.67;;;3.70;;
19653;SDS011;9975;48.046;7.804;2023-05-07T13:10:56;5.20;;;3.80;;
19653;SDS011;9975;48.046;7.804;2023-05-07T13:13:22;4.23;;;3.00;;
19653;SDS011;9975;48.046;7.804;2023-05-07T13:15:48;4.73;;;2.77;;
19653;SDS011;9975;48.046;7.804;2023-05-07T13:18:14;5.37;;;3.17;;
19653;SDS011;9975;48.046;7.804;2023-05-07T13:20:39;2.80;;;2.60;;
19653;SDS011;9975;48.046;7.804;2023-05-07T13:23:05;2.90;;;2.70;;
19653;SDS011;9975;48.046;7.804;2023-05-07T13:25:31;2.70;;;2.47;;
19653;SDS011;9975;48.046;7.804;2023-05-07T13:27:57;3.23;;;3.03;;
19653;SDS011;9975;48.046;7.804;2023-05-07T13:30:22;3.03;;;2.83;;
19653;SDS011;9975;48.046;7.804;2023-05-07T13:32:48;3.20;;;2.90;;
19653;SDS011;9975;48.046;7.804;2023-05-07T13:35:15;3.77;;;3.03;;
19653;SDS011;9975;48.046;7.804;2023-05-07T13:37:41;5.00;;;4.57;;
19653;SDS011;9975;48.046;7.804;2023-05-07T13:40:07;5.93;;;4.07;;
19653;SDS011;9975;48.046;7.804;2023-05-07T13:42:33;5.37;;;4.30;;
19653;SDS011;9975;48.046;7.804;2023-05-07T13:44:58;5.03;;;4.23;;
19653;SDS011;9975;48.046;7.804;2023-05-07T13:47:24;4.43;;;3.83;;
19653;SDS011;9975;48.046;7.804;2023-05-07T13:49:50;4.57;;;4.10;;
19653;SDS011;9975;48.046;7.804;2023-05-07T13:52:16;4.13;;;3.77;;
19653;SDS011;9975;48.046;7.804;2023-05-07T13:54:41;4.10;;;3.30;;
19653;SDS011;9975;48.046;7.804;2023-05-07T13:57:07;3.63;;;3.33;;
19653;SDS011;9975;48.046;7.804;2023-05-07T13:59:33;2.07;;;1.87;;
19653;SDS011;9975;48.046;7.804;2023-05-07T14:01:59;2.53;;;2.00;;
19653;SDS011;9975;48.046;7.804;2023-05-07T14:04:25;1.60;;;1.50;;
19653;SDS011;9975;48.046;7.804;2023-05-07T14:06:50;1.73;;;1.10;;
19653;SDS011;9975;48.046;7.804;2023-05-07T14:09:16;1.43;;;1.27;;
19653;SDS011;9975;48.046;7.804;2023-05-07T14:11:42;1.70;;;1.40;;
19653;SDS011;9975;48.046;7.804;2023-05-07T14:14:08;2.50;;;1.57;;
19653;SDS011;9975;48.046;7.804;2023-05-07T14:16:35;1.90;;;1.80;;
19653;SDS011;9975;48.046;7.804;2023-05-07T14:19:02;1.50;;;1.40;;
19653;SDS011;9975;48.046;7.804;2023-05-07T14:21:27;3.57;;;1.40;;
19653;SDS011;9975;48.046;7.804;2023-05-07T14:23:53;5.30;;;1.80;;
19653;SDS011;9975;48.046;7.804;2023-05-07T14:26:18;3.17;;;1.67;;
19653;SDS011;9975;48.046;7.804;2023-05-07T14:28:45;2.03;;;1.83;;
19653;SDS011;9975;48.046;7.804;2023-05-07T14:31:14;8.33;;;1.50;;
19653;SDS011;9975;48.046;7.804;2023-05-07T14:33:39;1.40;;;1.30;;
19653;SDS011;9975;48.046;7.804;2023-05-07T14:36:05;1.80;;;1.70;;
19653;SDS011;9975;48.046;7.804;2023-05-07T14:38:31;1.87;;;1.70;;
19653;SDS011;9975;48.046;7.804;2023-05-07T14:40:58;1.60;;;1.50;;
19653;SDS011;9975;48.046;7.804;2023-05-07T14:43:23;3.90;;;1.90;;
19653;SDS011;9975;48.046;7.804;2023-05-07T14:45:49;2.90;;;2.00;;
19653;SDS011;9975;48.046;7.804;2023-05-07T14:48:15;2.03;;;1.93;;
19653;SDS011;9975;48.046;7.804;2023-05-07T14:50:41;2.00;;;1.90;;
19653;SDS011;9975;48.046;7.804;2023-05-07T14:53:07;1.80;;;1.70;;
19653;SDS011;9975;48.046;7.804;2023-05-07T14:55:33;2.33;;;2.20;;
19653;SDS011;9975;48.046;7.804;2023-05-07T14:57:59;1.57;;;1.47;;
19653;SDS011;9975;48.046;7.804;2023-05-07T15:00:25;2.67;;;1.93;;
19653;SDS011;9975;48.046;7.804;2023-05-07T15:02:51;5.57;;;1.90;;
19653;SDS011;9975;48.046;7.804;2023-05-07T15:05:16;2.23;;;2.03;;
19653;SDS011;9975;48.046;7.804;2023-05-07T15:07:44;3.53;;;2.60;;
19653;SDS011;9975;48.046;7.804;2023-05-07T15:10:09;3.53;;;2.57;;
19653;SDS011;9975;48.046;7.804;2023-05-07T15:12:35;2.40;;;2.30;;
19653;SDS011;9975;48.046;7.804;2023-05-07T15:15:01;2.87;;;2.63;;
19653;SDS011;9975;48.046;7.804;2023-05-07T15:17:27;3.80;;;2.87;;
19653;SDS011;9975;48.046;7.804;2023-05-07T15:19:52;5.83;;;2.70;;
19653;SDS011;9975;48.046;7.804;2023-05-07T15:22:18;2.90;;;2.70;;
19653;SDS011;9975;48.046;7.804;2023-05-07T15:24:46;2.50;;;2.30;;
19653;SDS011;9975;48.046;7.804;2023-05-07T15:27:11;2.57;;;2.37;;
19653;SDS011;9975;48.046;7.804;2023-05-07T15:29:37;3.37;;;2.20;;
19653;SDS011;9975;48.046;7.804;2023-05-07T15:32:03;2.43;;;2.23;;
19653;SDS011;9975;48.046;7.804;2023-05-07T15:34:28;2.33;;;2.13;;
19653;SDS011;9975;48.046;7.804;2023-05-07T15:36:56;2.37;;;2.17;;
19653;SDS011;9975;48.046;7.804;2023-05-07T15:39:22;1.90;;;1.80;;
19653;SDS011;9975;48.046;7.804;2023-05-07T15:41:47;1.90;;;1.80;;
19653;SDS011;9975;48.046;7.804;2023-05-07T15:44:13;3.87;;;2.20;;
19653;SDS011;9975;48.046;7.804;2023-05-07T15:46:39;2.27;;;1.90;;
19653;SDS011;9975;48.046;7.804;2023-05-07T15:49:04;3.20;;;2.57;;
19653;SDS011;9975;48.046;7.804;2023-05-07T15:51:30;2.60;;;2.40;;
19653;SDS011;9975;48.046;7.804;2023-05-07T15:53:56;2.43;;;2.33;;
19653;SDS011;9975;48.046;7.804;2023-05-07T15:56:21;2.60;;;2.40;;
19653;SDS011;9975;48.046;7.804;2023-05-07T15:58:47;3.20;;;2.40;;
19653;SDS011;9975;48.046;7.804;2023-05-07T16:01:13;2.70;;;2.50;;
19653;SDS011;9975;48.046;7.804;2023-05-07T16:03:39;2.93;;;2.43;;
19653;SDS011;9975;48.046;7.804;2023-05-07T16:06:05;4.10;;;2.60;;
19653;SDS011;9975;48.046;7.804;2023-05-07T16:08:31;3.10;;;2.67;;
19653;SDS011;9975;48.046;7.804;2023-05-07T16:10:57;2.70;;;2.50;;
19653;SDS011;9975;48.046;7.804;2023-05-07T16:13:23;3.17;;;2.63;;
19653;SDS011;9975;48.046;7.804;2023-05-07T16:15:54;3.73;;;2.37;;
19653;SDS011;9975;48.046;7.804;2023-05-07T16:18:21;4.50;;;2.10;;
19653;SDS011;9975;48.046;7.804;2023-05-07T16:20:46;1.83;;;1.60;;
19653;SDS011;9975;48.046;7.804;2023-05-07T16:23:12;3.67;;;2.13;;
19653;SDS011;9975;48.046;7.804;2023-05-07T16:25:38;2.87;;;2.40;;
19653;SDS011;9975;48.046;7.804;2023-05-07T16:28:04;2.10;;;1.90;;
19653;SDS011;9975;48.046;7.804;2023-05-07T16:30:29;3.07;;;2.10;;
19653;SDS011;9975;48.046;7.804;2023-05-07T16:32:55;2.20;;;2.00;;
19653;SDS011;9975;48.046;7.804;2023-05-07T16:35:21;2.03;;;1.93;;
19653;SDS011;9975;48.046;7.804;2023-05-07T16:37:46;3.03;;;2.00;;
19653;SDS011;9975;48.046;7.804;2023-05-07T16:40:12;1.90;;;1.80;;
19653;SDS011;9975;48.046;7.804;2023-05-07T16:42:38;4.20;;;2.10;;
19653;SDS011;9975;48.046;7.804;2023-05-07T16:45:03;2.87;;;2.50;;
19653;SDS011;9975;48.046;7.804;2023-05-07T16:47:30;2.60;;;2.40;;
19653;SDS011;9975;48.046;7.804;2023-05-07T16:49:56;4.60;;;2.30;;
19653;SDS011;9975;48.046;7.804;2023-05-07T16:52:22;2.33;;;2.13;;
19653;SDS011;9975;48.046;7.804;2023-05-07T16:54:48;3.03;;;2.83;;
19653;SDS011;9975;48.046;7.804;2023-05-07T16:57:14;4.53;;;2.77;;
19653;SDS011;9975;48.046;7.804;2023-05-07T16:59:39;3.17;;;1.97;;
19653;SDS011;9975;48.046;7.804;2023-05-07T17:02:05;2.30;;;1.80;;
19653;SDS011;9975;48.046;7.804;2023-05-07T17:04:31;1.90;;;1.70;;
19653;SDS011;9975;48.046;7.804;2023-05-07T17:06:57;2.43;;;1.60;;
19653;SDS011;9975;48.046;7.804;2023-05-07T17:09:23;2.50;;;2.27;;